• Join FlightAware (Why Join?)
  • Login
  • US Flag 
01:12PM EDT


 

Airport Tracker/Info


-or-


 

Live Flight TrackerFlight Track Log ✈ AWE1940 ✈ 05-Jun-2013 ✈ KCLT - KALB

Flight Track Log - Related Links

Times and Time Zones

All times are in EDT time to prevent confusion due to time zone crossing. See the AWE1940 flight status page for this flight to view local times or setup timezone preferences in your user account.

Time Position Orientation Groundspeed Altitude Reporting Facility
EDT Latitude Longitude Course Direction KTS MPH feet Rate Location/Type
10:34PM 35.1928 -80.9356 72° East 167 192 1,700  Level Atlanta Center
10:35PM 35.1444 -80.9222 167° South 195 224 3,600 1,860 Climbing Atlanta Center
10:36PM 35.0950 -80.8556 132° Southeast 265 305 5,700 2,280 Climbing Atlanta Center
10:37PM 35.1112 -80.6259 29° Northeast  Level FlightAware Approximate
10:37PM 35.1239 -80.7731 67° East 296 341 8,500  Level Atlanta Center
10:38PM 35.2075 -80.5613 30° Northeast  Level FlightAware Approximate
10:38PM 35.1339 -80.7472 65° Northeast 288 331 9,300  Level Atlanta Center
10:38PM 35.1656 -80.6878 57° Northeast 309 356 11,100 2,100 Climbing Atlanta Center
10:39PM 35.3024 -80.4935 30° Northeast  Level FlightAware Approximate
10:39PM 35.1792 -80.6567 62° Northeast 335 386 11,400  Level Atlanta Center
10:40PM 35.3528 -80.3932 72° East  Level FlightAware Approximate
10:40PM 35.2306 -80.5528 59° Northeast 371 427 14,000  Level Atlanta Center
10:41PM 35.2858 -80.4436 58° Northeast 371 427 14,000 1,500 Level Atlanta Center
10:43PM 35.4056 -80.2044 58° Northeast 383 441 19,000 2,340 Climbing Washington Center
10:44PM 35.4481 -80.0744 68° East 404 465 21,700 2,520 Climbing Washington Center
10:45PM 35.4892 -79.9286 71° East 404 465 24,000 1,860 Climbing Washington Center
10:46PM 35.5256 -79.7825 73° East 424 488 25,500 1,500 Climbing Washington Center
10:47PM 35.5642 -79.6314 73° East 437 503 27,100 1,980 Climbing Washington Center
10:48PM 35.6028 -79.4775 73° East 462 532 29,500 2,220 Climbing Washington Center
10:49PM 35.6533 -79.3317 67° East 462 532 31,500 1,680 Climbing Washington Center
10:50PM 35.7117 -79.1939 62° Northeast 457 526 33,000 1,440 Climbing Washington Center
10:51PM 35.7681 -79.0506 64° Northeast 457 526 34,500 960 Climbing Washington Center
10:52PM 35.8264 -78.9122 62° Northeast 457 526 35,000 240 Climbing Washington Center
10:53PM 35.8867 -78.7658 63° Northeast 462 532 35,000  Level Washington Center
10:54PM 35.9528 -78.6300 59° Northeast 462 532 35,000  Level Washington Center
10:55PM 36.0186 -78.4914 60° Northeast 462 532 35,000  Level Washington Center
10:56PM 36.0847 -78.3525 59° Northeast 468 539 35,000  Level Washington Center
10:57PM 36.1525 -78.2133 59° Northeast 468 539 35,000  Level Washington Center
10:58PM 36.2200 -78.0739 59° Northeast 468 539 35,000  Level Washington Center
10:59PM 36.2856 -77.9342 60° Northeast 463 533 35,000  Level Washington Center
11:00PM 36.3506 -77.7969 60° Northeast 463 533 35,000  Level Washington Center
11:01PM 36.4158 -77.6594 59° Northeast 463 533 35,000  Level Washington Center
11:02PM 36.4764 -77.5242 61° Northeast 455 524 35,000  Level Washington Center
11:03PM 36.5411 -77.3886 59° Northeast 455 524 35,000  Level Washington Center
11:04PM 36.6058 -77.2478 60° Northeast 455 524 35,000  Level Washington Center
11:05PM 36.6703 -77.1069 60° Northeast 455 524 35,000  Level Washington Center
11:06PM 36.7447 -76.9839 53° Northeast 455 524 35,000  Level Washington Center
11:07PM 36.8481 -76.8897 36° Northeast 447 514 35,000  Level Washington Center
11:08PM 36.9492 -76.7978 36° Northeast 441 507 35,000  Level Washington Center
11:09PM 37.0542 -76.7031 36° Northeast 453 521 35,000  Level Washington Center
11:10PM 37.1572 -76.6081 36° Northeast 458 527 35,000  Level Washington Center
11:11PM 37.2497 -76.5233 36° Northeast 458 527 35,000  Level Washington Center
11:12PM 37.3547 -76.4306 35° Northeast 458 527 35,000  Level Washington Center
11:13PM 37.4556 -76.3375 36° Northeast 458 527 35,000  Level Washington Center
11:14PM 37.5583 -76.2442 36° Northeast 458 527 35,000  Level Washington Center
11:15PM 37.6692 -76.1400 37° Northeast 458 527 35,000  Level Washington Center
11:16PM 37.7614 -76.0619 34° Northeast 453 521 35,000  Level Washington Center
11:17PM 37.8619 -75.9600 39° Northeast 453 521 35,000  Level Washington Center
11:18PM 37.9622 -75.8658 37° Northeast 453 521 35,000  Level Washington Center
11:19PM 38.0667 -75.7711 36° Northeast 453 521 35,000  Level Washington Center
11:20PM 38.1669 -75.6764 37° Northeast 453 521 35,000  Level Washington Center
11:21PM 38.2775 -75.5678 38° Northeast 458 527 35,000  Level Washington Center
11:22PM 38.3878 -75.4911 29° Northeast 452 520 35,000  Level Washington Center
11:23PM 38.5067 -75.4483 16° North 435 501 35,000 -60 Level Washington Center
11:24PM 38.6233 -75.3978 19° North 440 506 34,900  Descending Washington Center
11:25PM 38.7400 -75.3494 18° North 434 499 35,000  Climbing Washington Center
11:26PM 38.8544 -75.3011 18° North 434 499 35,000 -60 Level Washington Center
11:27PM 38.9606 -75.2233 30° Northeast 434 499 34,900  Descending Washington Center
11:28PM 39.0667 -75.1478 29° Northeast 428 493 35,000  Climbing Washington Center
11:29PM 39.1728 -75.0694 30° Northeast 428 493 35,000 -60 Level Washington Center
11:30PM 39.2764 -74.9936 30° Northeast 434 499 34,900 -60 Descending Washington Center
11:31PM 39.3803 -74.9175 30° Northeast 434 499 34,900  Level Washington Center
11:32PM 39.4861 -74.8414 29° Northeast 434 499 35,000  Climbing Washington Center
11:34PM 39.6792 -74.7008 29° Northeast 422 486 35,000  Level New York Center
11:35PM 39.7731 -74.6306 30° Northeast 429 494 35,000  Level New York Center
11:36PM 39.8906 -74.5450 29° Northeast 435 501 35,000  Level New York Center
11:37PM 39.9889 -74.4717 30° Northeast 435 501 35,000 -60 Level New York Center
11:38PM 40.0972 -74.4017 26° Northeast 435 501 34,900  Descending New York Center
11:39PM 40.2128 -74.3778 North 412 474 35,000  Climbing New York Center
11:40PM 40.4233 -74.3319 North 418 481 35,000  Level Boston Center
11:41PM 40.5364 -74.3078 North 418 481 35,000  Level Boston Center
11:42PM 40.6536 -74.2783 11° North 418 481 35,000  Level Boston Center
11:43PM 40.7622 -74.2594 North 424 488 35,000  Level Boston Center
11:44PM 40.8794 -74.2353 North 429 494 35,000 -480 Level Boston Center
11:45PM 40.9964 -74.2056 11° North 429 494 34,100 -1,260 Descending Boston Center
11:46PM 41.1156 -74.1814 North 429 494 32,500 -2,640 Descending Boston Center
11:47PM 41.2350 -74.1542 10° North 429 494 28,900 -3,240 Descending Boston Center
11:48PM 41.3564 -74.1214 11° North 429 494 26,100 -1,500 Descending Boston Center
11:49PM 41.4753 -74.0969 North 429 494 26,000 -1,800 Descending Boston Center
11:50PM 41.5986 -74.0725 North 436 502 22,500 -3,060 Descending Boston Center
11:51PM 41.7158 -74.0447 10° North 431 496 19,900 -2,580 Descending Boston Center
11:52PM 41.8308 -74.0169 10° North 403 464 17,400 -2,640 Descending Boston Center
11:53PM 41.9081 -74.0022 North 386 444 15,300 -2,700 Descending Boston Center
11:54PM 42.0253 -73.9744 10° North 372 428 12,400 -2,040 Descending Boston Center
11:55PM 42.1236 -73.9517 10° North 358 412 11,000 -1,320 Descending Boston Center
11:56PM 42.2178 -73.9231 13° North 318 366 9,700 -1,440 Descending Boston Center
11:57PM 42.2889 -73.9078 North 289 333 8,200 -1,560 Descending Boston Center
11:58PM 42.3725 -73.8817 13° North 287 330 6,800 -1,620 Descending Boston Center
11:59PM 42.4478 -73.8639 10° North 267 307 5,000 -1,740 Descending Boston Center
12:00AM 42.5231 -73.8403 13° North 273 314 3,300 -1,020 Descending Boston Center
12:01AM 42.5942 -73.8219 11° North 271 312 3,000 -660 Descending Boston Center
12:02AM 42.6550 -73.8008 14° North 220 253 2,000 -1,020 Descending Boston Center